Time;durP1;ratioP1;P1;durP2;ratioP2;P2;SDS_P1;SDS_P2;PMS_P1;PMS_P2;Temp;Humidity;BMP_temperature;BMP_pressure;BME280_temperature;BME280_humidity;BME280_pressure;Samples;Min_cycle;Max_cycle;Signal;HPM_P1;HPM_P2
2023/04/03 00:02:08;;;;;;;11.73;5.70;;;;;;;9.01;100.00;99570.61;124966;1099;104297;-72
2023/04/03 00:04:39;;;;;;;10.37;5.60;;;;;;;9.00;100.00;99574.93;124936;1099;102160;-71
2023/04/03 00:07:12;;;;;;;13.27;6.40;;;;;;;8.99;100.00;99565.33;124597;1099;101918;-72
2023/04/03 00:09:43;;;;;;;14.43;6.67;;;;;;;9.00;100.00;99561.84;124381;1099;104259;-73
2023/04/03 00:12:15;;;;;;;14.57;6.60;;;;;;;9.01;100.00;99565.38;124449;1102;102390;-73
2023/04/03 00:14:46;;;;;;;15.13;7.10;;;;;;;9.00;100.00;99567.08;124714;1099;102428;-73
2023/04/03 00:17:17;;;;;;;14.67;7.13;;;;;;;9.01;100.00;99567.98;124486;1099;104293;-72
2023/04/03 00:19:49;;;;;;;13.67;6.43;;;;;;;9.02;100.00;99569.73;124965;1099;104230;-72
2023/04/03 00:22:20;;;;;;;13.20;6.70;;;;;;;9.02;100.00;99574.97;125102;1099;101806;-74
2023/04/03 00:24:51;;;;;;;13.07;6.43;;;;;;;9.04;100.00;99580.25;124936;1099;104182;-71
2023/04/03 00:27:22;;;;;;;12.90;6.20;;;;;;;9.01;100.00;99567.98;124988;1099;104335;-73
2023/04/03 00:29:54;;;;;;;11.17;5.23;;;;;;;9.00;100.00;99564.47;124435;1099;104182;-72
2023/04/03 00:32:25;;;;;;;11.17;5.37;;;;;;;8.99;100.00;99573.19;124431;1099;110821;-73
2023/04/03 00:34:57;;;;;;;8.07;4.57;;;;;;;8.97;100.00;99577.47;124543;1099;101943;-71
2023/04/03 00:37:28;;;;;;;9.73;4.80;;;;;;;8.96;100.00;99572.19;124943;1099;104181;-72
2023/04/03 00:39:59;;;;;;;8.50;4.23;;;;;;;8.94;100.00;99571.27;124724;1099;104830;-71
2023/04/03 00:42:30;;;;;;;8.43;4.37;;;;;;;8.91;100.00;99579.95;124878;1099;102220;-73
2023/04/03 00:45:39;;;;;;;9.07;3.90;;;;;;;8.91;100.00;99579.95;124919;1099;104201;-72
2023/04/03 00:48:16;;;;;;;8.73;4.40;;;;;;;8.88;100.00;99581.56;124448;1099;104235;-72
2023/04/03 00:50:48;;;;;;;8.50;4.37;;;;;;;8.86;100.00;99581.52;124884;1099;104344;-72
2023/04/03 00:53:23;;;;;;;7.93;4.37;;;;;;;8.84;100.00;99591.07;124861;1099;104161;-73
2023/04/03 00:55:57;;;;;;;9.23;4.07;;;;;;;8.82;100.00;99584.92;124960;1099;104699;-73
2023/04/03 00:58:34;;;;;;;7.50;4.30;;;;;;;8.80;100.00;99584.88;124568;1100;102303;-73
2023/04/03 01:01:13;;;;;;;8.37;4.60;;;;;;;8.79;100.00;99592.69;125004;1099;101884;-73
2023/04/03 01:03:44;;;;;;;7.55;4.25;;;;;;;8.78;100.00;99586.55;124635;1099;102244;-72
2023/04/03 01:06:18;;;;;;;9.53;4.57;;;;;;;8.77;100.00;99587.41;124820;1099;103174;-72
2023/04/03 01:08:51;;;;;;;8.08;4.40;;;;;;;8.76;100.00;99587.36;124546;1099;104319;-71
2023/04/03 01:11:23;;;;;;;8.95;4.92;;;;;;;8.76;100.00;99588.23;124372;1099;104255;-73
2023/04/03 01:13:55;;;;;;;9.67;4.53;;;;;;;8.76;100.00;99584.75;124458;1099;104238;-74
2023/04/03 01:16:26;;;;;;;8.47;4.33;;;;;;;8.75;100.00;99585.58;124539;1099;101941;-74
2023/04/03 01:18:58;;;;;;;7.63;4.40;;;;;;;8.75;100.00;99590.81;124423;1099;104330;-73
2023/04/03 01:21:50;;;;;;;7.07;4.27;;;;;;;8.72;100.00;99591.59;124236;1099;104249;-71
2023/04/03 01:24:33;;;;;;;8.57;4.67;;;;;;;8.71;100.00;99595.08;124421;1099;104092;-74
2023/04/03 01:27:07;;;;;;;8.83;4.63;;;;;;;8.71;100.00;99602.02;124729;1099;102196;-72
2023/04/03 01:29:40;;;;;;;8.93;4.67;;;;;;;8.69;100.00;99596.73;124434;1099;101930;-73
2023/04/03 01:32:12;;;;;;;10.53;5.00;;;;;;;8.67;100.00;99606.28;124566;1098;104083;-71
2023/04/03 01:34:43;;;;;;;9.90;4.80;;;;;;;8.67;100.00;99598.44;124559;1099;104191;-72
2023/04/03 01:37:14;;;;;;;10.47;5.13;;;;;;;8.66;100.00;99601.88;124624;1099;104274;-73
2023/04/03 01:39:46;;;;;;;11.90;5.13;;;;;;;8.64;100.00;99619.27;124650;1099;104246;-73
2023/04/03 01:42:17;;;;;;;9.53;5.10;;;;;;;8.62;100.00;99608.77;124806;1099;104169;-72
2023/04/03 01:44:49;;;;;;;9.10;4.77;;;;;;;8.60;100.00;99614.78;124524;1099;102003;-74
2023/04/03 01:47:20;;;;;;;11.00;5.10;;;;;;;8.57;100.00;99612.98;124871;1099;104178;-72
2023/04/03 01:49:51;;;;;;;10.90;4.93;;;;;;;8.53;100.00;99618.08;124443;1099;101898;-74
2023/04/03 01:52:23;;;;;;;10.07;5.00;;;;;;;8.50;100.00;99618.86;124406;1099;104214;-71
2023/04/03 01:54:55;;;;;;;7.25;4.20;;;;;;;8.49;100.00;99613.58;124587;1099;104311;-73
2023/04/03 01:57:26;;;;;;;7.30;4.20;;;;;;;8.45;100.00;99623.08;124547;1099;104504;-71
2023/04/03 01:59:58;;;;;;;8.10;4.27;;;;;;;8.42;100.00;99628.17;124578;1099;101804;-72
2023/04/03 02:02:29;;;;;;;9.25;4.10;;;;;;;8.36;100.00;99627.98;124568;1099;104249;-72
2023/04/03 02:05:00;;;;;;;7.90;4.20;;;;;;;8.32;100.00;99632.25;124836;1099;101913;-72
2023/04/03 02:07:32;;;;;;;7.30;3.90;;;;;;;8.30;100.00;99630.41;124390;1099;104192;-72
2023/04/03 02:10:03;;;;;;;9.23;3.93;;;;;;;8.26;100.00;99639.89;124878;1099;103094;-71
2023/04/03 02:12:34;;;;;;;6.00;3.40;;;;;;;8.21;100.00;99644.98;124470;1099;104200;-71
2023/04/03 02:15:07;;;;;;;8.07;4.10;;;;;;;8.16;100.00;99641.31;124390;1099;104287;-71
2023/04/03 02:17:39;;;;;;;7.73;3.77;;;;;;;8.13;100.00;99637.72;124813;1099;101890;-72
2023/04/03 02:20:11;;;;;;;9.27;4.17;;;;;;;8.09;100.00;99635.02;124680;1099;104298;-70
2023/04/03 02:22:43;;;;;;;8.27;4.33;;;;;;;8.06;100.00;99644.48;124738;1099;104326;-72
2023/04/03 02:25:14;;;;;;;8.40;4.23;;;;;;;8.01;100.00;99640.81;124812;1099;104169;-71
2023/04/03 02:27:45;;;;;;;9.50;4.43;;;;;;;7.98;100.00;99659.00;124803;1099;101827;-71
2023/04/03 02:30:17;;;;;;;8.37;4.13;;;;;;;7.95;100.00;99643.23;124797;1099;104245;-71
2023/04/03 02:32:48;;;;;;;7.50;3.97;;;;;;;7.91;100.00;99645.74;124770;1099;102441;-72
2023/04/03 02:35:20;;;;;;;7.90;4.37;;;;;;;7.89;100.00;99652.66;124351;1099;102369;-72
2023/04/03 02:37:52;;;;;;;9.83;4.70;;;;;;;7.86;100.00;99649.94;124812;1099;102042;-73
2023/04/03 02:40:24;;;;;;;9.17;4.73;;;;;;;7.83;100.00;99657.67;124390;1099;104182;-70
2023/04/03 02:42:55;;;;;;;8.87;4.43;;;;;;;7.81;100.00;99654.13;124386;1099;104248;-70
2023/04/03 02:45:27;;;;;;;10.65;4.60;;;;;;;7.79;100.00;99657.52;124440;1099;104175;-72
2023/04/03 02:47:59;;;;;;;9.63;4.50;;;;;;;7.78;100.00;99653.16;124803;1098;101935;-73
2023/04/03 02:50:30;;;;;;;8.50;4.33;;;;;;;7.76;100.00;99662.64;124892;1099;104073;-72
2023/04/03 02:53:01;;;;;;;9.30;4.53;;;;;;;7.75;100.00;99659.16;124951;1099;101907;-72
2023/04/03 02:55:33;;;;;;;7.97;4.23;;;;;;;7.71;100.00;99668.62;124432;1099;104265;-71
2023/04/03 02:58:04;;;;;;;9.00;4.50;;;;;;;7.69;100.00;99653.72;124490;1099;104246;-72
2023/04/03 03:00:36;;;;;;;8.23;4.17;;;;;;;7.65;100.00;99672.72;124538;1099;104169;-72
2023/04/03 03:03:08;;;;;;;9.00;4.00;;;;;;;7.63;100.00;99659.61;124547;1099;104159;-73
2023/04/03 03:05:39;;;;;;;8.63;4.53;;;;;;;7.60;100.00;99659.50;125025;1099;104213;-73
2023/04/03 03:08:10;;;;;;;8.23;4.10;;;;;;;7.59;100.00;99672.51;124489;1099;102180;-73
2023/04/03 03:10:42;;;;;;;8.47;4.17;;;;;;;7.56;100.00;99668.09;124516;1099;104268;-75
2023/04/03 03:13:13;;;;;;;7.70;3.77;;;;;;;7.53;100.00;99673.20;124893;1099;102447;-71
2023/04/03 03:15:44;;;;;;;8.03;3.80;;;;;;;7.49;100.00;99672.19;124869;1099;104182;-71
2023/04/03 03:18:16;;;;;;;9.33;4.23;;;;;;;7.47;100.00;99675.61;124901;1099;104172;-75
2023/04/03 03:20:51;;;;;;;9.57;4.33;;;;;;;7.46;100.00;99681.65;124834;1099;101900;-73
2023/04/03 03:23:27;;;;;;;8.27;3.80;;;;;;;7.42;100.00;99683.27;124824;1099;101970;-72
2023/04/03 03:25:59;;;;;;;8.03;3.80;;;;;;;7.42;100.00;99682.36;124354;1099;106966;-73
2023/04/03 03:28:31;;;;;;;7.27;3.90;;;;;;;7.39;100.00;99690.99;124841;1099;104070;-73
2023/04/03 03:31:03;;;;;;;6.85;3.60;;;;;;;7.38;100.00;99691.81;124884;1099;103111;-75
2023/04/03 03:33:35;;;;;;;8.00;4.10;;;;;;;7.36;100.00;99691.77;124457;1099;104287;-72
2023/04/03 03:36:07;;;;;;;10.10;4.23;;;;;;;7.35;100.00;99694.31;124807;1099;104294;-72
2023/04/03 03:38:39;;;;;;;7.03;3.50;;;;;;;7.32;100.00;99700.34;124818;1099;104169;-71
2023/04/03 03:41:10;;;;;;;6.50;3.60;;;;;;;7.32;100.00;99702.03;124888;1099;104224;-72
2023/04/03 03:43:42;;;;;;;7.17;3.80;;;;;;;7.29;100.00;99705.45;124590;1099;104191;-74
2023/04/03 03:46:13;;;;;;;8.97;4.10;;;;;;;7.27;100.00;99701.88;124811;1099;102233;-74
2023/04/03 03:48:44;;;;;;;7.17;3.57;;;;;;;7.26;100.00;99710.55;124933;1099;102369;-74
2023/04/03 03:51:16;;;;;;;6.63;3.83;;;;;;;7.24;100.00;99704.37;124491;1099;104310;-73
2023/04/03 03:53:47;;;;;;;9.13;4.57;;;;;;;7.25;100.00;99708.77;124963;1099;104054;-76
2023/04/03 03:56:21;;;;;;;9.13;4.30;;;;;;;7.24;100.00;99706.09;124607;1099;104290;-77
2023/04/03 03:58:52;;;;;;;8.70;4.67;;;;;;;7.25;100.00;99718.33;124746;1099;104235;-74
2023/04/03 04:01:25;;;;;;;9.30;4.43;;;;;;;7.26;100.00;99715.77;124790;1099;104293;-72
2023/04/03 04:03:56;;;;;;;10.77;4.50;;;;;;;7.25;100.00;99713.98;124346;1099;102141;-72
2023/04/03 04:06:30;;;;;;;10.70;4.83;;;;;;;7.25;100.00;99718.33;124287;1099;104175;-72
2023/04/03 04:09:05;;;;;;;12.43;5.07;;;;;;;7.23;100.00;99726.09;124391;1099;104274;-73
2023/04/03 04:11:36;;;;;;;13.33;5.70;;;;;;;7.23;100.00;99733.02;125089;1099;104172;-73
2023/04/03 04:14:10;;;;;;;11.10;4.93;;;;;;;7.22;100.00;99731.26;124637;1099;102431;-75
2023/04/03 04:16:42;;;;;;;11.93;5.12;;;;;;;7.23;100.00;99730.41;124731;1099;102528;-74
2023/04/03 04:19:17;;;;;;;12.80;5.47;;;;;;;7.24;100.00;99734.80;124506;1099;104654;-75
2023/04/03 04:21:48;;;;;;;12.77;5.33;;;;;;;7.22;100.00;99739.97;125039;1098;104227;-74
2023/04/03 04:24:20;;;;;;;12.57;5.70;;;;;;;7.22;100.00;99741.70;124573;1099;104175;-74
2023/04/03 04:26:51;;;;;;;15.37;6.73;;;;;;;7.23;100.00;99740.84;124856;1102;104307;-81
2023/04/03 04:29:23;;;;;;;12.73;5.73;;;;;;;7.23;100.00;99743.45;124910;1099;104294;-77
2023/04/03 04:31:55;;;;;;;14.97;6.10;;;;;;;7.22;100.00;99749.53;125599;1099;101771;-75
2023/04/03 04:34:26;;;;;;;13.53;5.90;;;;;;;7.22;100.00;99749.53;124639;1099;104235;-77
2023/04/03 04:36:58;;;;;;;14.47;6.33;;;;;;;7.23;100.00;99749.58;125370;1099;104284;-77
2023/04/03 04:39:29;;;;;;;13.93;6.10;;;;;;;7.25;100.00;99754.86;125029;1099;102022;-77
2023/04/03 04:42:01;;;;;;;14.40;6.10;;;;;;;7.23;100.00;99752.19;125226;1099;101986;-76
2023/04/03 04:44:34;;;;;;;13.47;5.90;;;;;;;7.22;100.00;99754.74;125132;1099;104159;-80
2023/04/03 04:47:05;;;;;;;15.30;6.47;;;;;;;7.20;100.00;99758.17;125248;1099;104283;-80
2023/04/03 04:49:37;;;;;;;14.80;6.57;;;;;;;7.20;100.00;99778.17;125109;1099;102128;-79
2023/04/03 04:52:08;;;;;;;13.70;6.10;;;;;;;7.17;100.00;99767.62;125566;1099;102058;-79
2023/04/03 04:54:40;;;;;;;14.07;6.10;;;;;;;7.15;100.00;99778.00;124972;1102;104111;-77
2023/04/03 04:57:12;;;;;;;13.73;6.13;;;;;;;7.14;100.00;99772.72;125529;1099;104257;-82
2023/04/03 04:59:44;;;;;;;14.33;6.50;;;;;;;7.12;100.00;99772.66;125039;1099;104341;-78
2023/04/03 05:02:15;;;;;;;15.10;6.17;;;;;;;7.12;100.00;99774.36;125217;1099;102157;-78
2023/04/03 05:04:49;;;;;;;12.93;6.33;;;;;;;7.12;100.00;99775.27;125341;1099;104242;-78
2023/04/03 05:07:24;;;;;;;15.73;6.60;;;;;;;7.15;100.00;99777.09;125001;1099;103657;-78
2023/04/03 05:09:55;;;;;;;12.10;5.80;;;;;;;7.15;100.00;99775.39;125260;1099;104249;-79
2023/04/03 05:12:27;;;;;;;11.83;5.93;;;;;;;7.16;100.00;99784.97;125052;1099;103917;-76
2023/04/03 05:15:01;;;;;;;16.77;6.13;;;;;;;7.17;100.00;99778.94;124944;1099;104166;-77
2023/04/03 05:17:33;;;;;;;12.77;5.97;;;;;;;7.21;100.00;99779.92;124870;1099;104265;-80
2023/04/03 05:20:06;;;;;;;13.30;5.87;;;;;;;7.23;100.00;99782.59;125008;1099;102969;-77
2023/04/03 05:22:39;;;;;;;11.93;5.40;;;;;;;7.26;100.00;99787.92;125539;1099;104599;-79
2023/04/03 05:25:12;;;;;;;11.83;5.63;;;;;;;7.27;100.00;99792.33;125008;1099;103723;-79
2023/04/03 05:27:44;;;;;;;11.37;5.30;;;;;;;7.28;100.00;99796.73;125041;1099;102910;-77
2023/04/03 05:30:18;;;;;;;12.17;6.27;;;;;;;7.27;100.00;99789.72;124661;1099;102156;-82
2023/04/03 05:32:49;;;;;;;12.57;5.90;;;;;;;7.28;100.00;99788.90;125227;1098;104300;-78
2023/04/03 05:35:24;;;;;;;12.17;5.37;;;;;;;7.30;100.00;99795.05;125729;1100;103032;-81
2023/04/03 05:37:57;;;;;;;10.30;4.73;;;;;;;7.32;100.00;99796.91;125406;1099;104198;-80
2023/04/03 05:40:29;;;;;;;11.77;5.23;;;;;;;7.33;100.00;99800.39;125477;1099;102431;-80
2023/04/03 05:43:06;;;;;;;11.83;5.93;;;;;;;7.38;100.00;99804.05;125855;1099;103339;-84
2023/04/03 05:46:06;;;;;;;10.97;5.10;;;;;;;7.38;100.00;99811.88;125791;1099;102861;-81
2023/04/03 05:48:38;;;;;;;13.37;5.67;;;;;;;7.38;100.00;99804.93;125624;1099;104181;-82
2023/04/03 05:51:14;;;;;;;10.63;5.17;;;;;;;7.38;100.00;99812.76;125330;1099;102337;-80
2023/04/03 05:53:52;;;;;;;12.47;5.80;;;;;;;7.39;100.00;99808.45;125373;1099;103525;-81
2023/04/03 05:56:25;;;;;;;11.40;5.53;;;;;;;7.41;100.00;99819.83;125570;1099;104265;-81
2023/04/03 05:58:57;;;;;;;11.33;4.97;;;;;;;7.42;100.00;99810.27;124972;1103;107126;-83
2023/04/03 06:01:29;;;;;;;12.93;5.87;;;;;;;7.47;100.00;99817.45;125239;1102;102757;-82
2023/04/03 06:04:05;;;;;;;13.30;6.00;;;;;;;7.49;100.00;99818.37;124972;1099;104243;-78
2023/04/03 06:06:52;;;;;;;10.17;5.03;;;;;;;7.49;100.00;99820.11;125045;1099;104347;-80
2023/04/03 06:09:29;;;;;;;10.57;5.00;;;;;;;7.46;100.00;99818.27;125528;1099;119168;-80
2023/04/03 06:12:02;;;;;;;11.77;5.37;;;;;;;7.43;100.00;99839.03;125166;1099;103106;-79
2023/04/03 06:14:33;;;;;;;10.57;4.90;;;;;;;7.40;100.00;99832.82;125299;1099;102623;-80
2023/04/03 06:17:08;;;;;;;10.10;4.97;;;;;;;7.37;100.00;99833.61;125533;1099;102443;-75
2023/04/03 06:19:41;;;;;;;11.43;4.77;;;;;;;7.36;100.00;99835.31;125628;1099;102289;-81
2023/04/03 06:22:16;;;;;;;7.67;4.53;;;;;;;7.36;100.00;99831.83;125345;1099;103823;-80
2023/04/03 06:25:02;;;;;;;11.43;5.40;;;;;;;7.37;100.00;99831.00;125770;1099;102327;-78
2023/04/03 06:27:38;;;;;;;9.67;4.83;;;;;;;7.38;100.00;99836.25;124919;1099;101849;-77
2023/04/03 06:30:14;;;;;;;8.33;4.47;;;;;;;7.41;100.00;99842.44;124646;1100;110904;-77
2023/04/03 06:32:48;;;;;;;10.07;4.77;;;;;;;7.42;100.00;99847.72;124900;1098;101804;-73
2023/04/03 06:35:20;;;;;;;10.93;4.83;;;;;;;7.42;100.00;99850.33;124796;1098;104348;-75
2023/04/03 06:37:52;;;;;;;11.77;4.77;;;;;;;7.42;100.00;99858.16;125186;1099;104070;-79
2023/04/03 06:40:28;;;;;;;9.10;4.47;;;;;;;7.41;100.00;99851.15;125124;1099;104235;-77
2023/04/03 06:43:00;;;;;;;10.27;4.60;;;;;;;7.41;100.00;99853.76;125638;1099;102083;-78
2023/04/03 06:45:31;;;;;;;12.23;4.80;;;;;;;7.42;100.00;99858.16;125185;1099;104270;-77
2023/04/03 06:48:03;;;;;;;14.67;5.63;;;;;;;7.46;100.00;99859.16;124676;1099;102666;-77
2023/04/03 06:50:37;;;;;;;10.77;5.23;;;;;;;7.49;100.00;99870.59;125040;1099;104224;-75
2023/04/03 06:53:09;;;;;;;10.57;4.80;;;;;;;7.46;100.00;99870.47;124945;1099;101859;-75
2023/04/03 06:55:42;;;;;;;12.67;4.70;;;;;;;7.46;100.00;99875.70;124711;1099;104220;-74
2023/04/03 06:58:17;;;;;;;11.33;4.50;;;;;;;7.43;100.00;99886.02;124883;1099;104169;-74
2023/04/03 07:01:02;;;;;;;6.70;4.00;;;;;;;7.40;100.00;99883.29;124598;1099;117836;-73
2023/04/03 07:03:36;;;;;;;9.00;4.00;;;;;;;7.39;100.00;99884.14;124519;1099;104310;-74
2023/04/03 07:06:13;;;;;;;8.70;3.83;;;;;;;7.34;100.00;99897.02;124268;1099;104201;-75
2023/04/03 07:08:48;;;;;;;11.53;3.97;;;;;;;7.32;100.00;99898.69;124501;1099;102019;-75
2023/04/03 07:11:22;;;;;;;8.30;4.23;;;;;;;7.32;100.00;99892.55;124885;1099;104204;-77
2023/04/03 07:13:56;;;;;;;7.97;3.70;;;;;;;7.29;100.00;99898.56;124966;1099;104300;-79
2023/04/03 07:16:34;;;;;;;10.90;4.40;;;;;;;7.29;100.00;99908.09;126148;1098;104054;-77
2023/04/03 07:19:11;;;;;;;9.37;4.30;;;;;;;7.30;100.00;99909.89;125465;1098;104339;-76
2023/04/03 07:22:06;;;;;;;7.93;4.07;;;;;;;7.29;100.00;99918.53;124543;1099;104162;-76
2023/04/03 07:24:44;;;;;;;8.97;4.70;;;;;;;7.25;100.00;99916.66;124935;1099;104227;-80
2023/04/03 07:27:21;;;;;;;10.10;4.00;;;;;;;7.25;100.00;99930.58;124835;1099;104226;-78
2023/04/03 07:29:55;;;;;;;7.43;4.00;;;;;;;7.23;100.00;99918.29;124592;1099;103279;-81
2023/04/03 07:32:28;;;;;;;7.93;4.03;;;;;;;7.24;100.00;99933.13;124624;1099;104278;-77
2023/04/03 07:35:00;;;;;;;9.67;4.17;;;;;;;7.23;100.00;99923.51;124311;1099;104287;-78
2023/04/03 07:37:32;;;;;;;9.10;3.83;;;;;;;7.22;100.00;99932.19;124309;1098;101970;-77
2023/04/03 07:40:04;;;;;;;7.67;4.00;;;;;;;7.24;100.00;99935.73;126995;1098;101977;-79
2023/04/03 07:42:36;;;;;;;10.55;3.90;;;;;;;7.24;100.00;99935.73;125311;1098;102229;-78
2023/04/03 07:45:09;;;;;;;7.67;3.90;;;;;;;7.27;100.00;99941.08;125710;1098;104294;-78
2023/04/03 07:47:40;;;;;;;6.53;3.50;;;;;;;7.27;100.00;99938.47;124378;1099;104242;-75
2023/04/03 07:50:13;;;;;;;9.47;4.00;;;;;;;7.31;100.00;99932.55;124241;1102;104305;-78
2023/04/03 07:52:46;;;;;;;8.73;3.90;;;;;;;7.36;100.00;99937.11;124518;1099;104251;-78
2023/04/03 07:55:18;;;;;;;6.90;3.53;;;;;;;7.41;100.00;99945.12;124615;1099;102013;-78
2023/04/03 07:57:54;;;;;;;7.83;3.90;;;;;;;7.46;100.00;99943.57;124785;1099;104211;-82
2023/04/03 08:00:26;;;;;;;8.70;3.90;;;;;;;7.51;100.00;99942.05;125181;1099;101896;-79
2023/04/03 08:02:58;;;;;;;8.00;3.90;;;;;;;7.58;100.00;99950.13;125335;1099;104220;-77
2023/04/03 08:05:37;;;;;;;6.77;3.50;;;;;;;7.63;100.00;99946.84;125150;1098;104309;-79
2023/04/03 08:08:11;;;;;;;7.63;3.90;;;;;;;7.64;100.00;99950.36;124502;1099;104351;-76
2023/04/03 08:10:41;;;;;;;;;;;;;;;7.62;100.00;99960.75;124438;1099;104172;-77
2023/04/03 08:13:25;;;;;;;7.53;3.70;;;;;;;7.59;100.00;99964.94;124922;1099;104207;-78
2023/04/03 08:16:18;;;;;;;4.47;3.20;;;;;;;7.60;100.00;99967.61;127530;1098;101100;-79
2023/04/03 08:18:53;;;;;;;;;;;;;;;7.65;100.00;99980.84;125622;1099;103194;-80
2023/04/03 08:21:43;;;;;;;5.27;3.00;;;;;;;7.61;100.00;99972.02;125267;1099;102199;-79
2023/04/03 08:24:25;;;;;;;7.60;3.23;;;;;;;7.67;100.00;99984.43;124770;1100;102726;-79
2023/04/03 08:27:08;;;;;;;5.27;2.97;;;;;;;7.68;100.00;99988.80;125951;1099;101875;-78
2023/04/03 08:29:51;;;;;;;5.07;2.93;;;;;;;7.69;100.00;99991.47;125017;1098;104297;-78
2023/04/03 08:32:28;;;;;;;6.37;3.60;;;;;;;7.71;100.00;99999.37;124964;1099;102939;-78
2023/04/03 08:35:15;;;;;;;6.17;3.10;;;;;;;7.78;100.00;100011.84;124430;1102;102158;-75
2023/04/03 08:38:05;;;;;;;3.93;2.50;;;;;;;7.78;100.00;100008.36;124696;1099;104179;-77
2023/04/03 08:40:46;;;;;;;4.67;2.97;;;;;;;7.81;100.00;100013.70;124625;1099;104198;-76
2023/04/03 08:43:34;;;;;;;7.07;3.30;;;;;;;7.84;100.00;100001.64;125184;1099;102360;-78
2023/04/03 08:46:12;;;;;;;5.03;3.30;;;;;;;7.86;100.00;100018.25;125730;1099;103455;-78
2023/04/03 08:48:52;;;;;;;6.83;3.47;;;;;;;7.82;100.00;100005.02;125060;1099;102439;-77
2023/04/03 08:51:31;;;;;;;7.10;3.43;;;;;;;7.96;100.00;100019.48;126241;1098;104214;-78
2023/04/03 08:54:17;;;;;;;6.03;3.53;;;;;;;7.95;100.00;100022.95;125463;1099;101833;-80
2023/04/03 08:59:45;;;;;;;4.67;3.10;;;;;;;8.06;100.00;100029.47;125503;1099;102486;-73
2023/04/03 09:02:29;;;;;;;6.73;3.77;;;;;;;8.11;100.00;100024.42;124738;1098;104405;-73
2023/04/03 09:05:04;;;;;;;5.17;2.90;;;;;;;8.13;100.00;100030.59;124710;1099;101887;-75
2023/04/03 09:07:43;;;;;;;6.07;3.07;;;;;;;8.17;100.00;100035.11;125041;1099;104277;-75
2023/04/03 09:10:21;;;;;;;5.97;3.60;;;;;;;8.24;100.00;100042.36;124692;1099;104201;-75
2023/04/03 09:13:01;;;;;;;5.20;3.33;;;;;;;8.32;100.00;100049.58;124446;1099;102005;-73
2023/04/03 09:15:35;;;;;;;5.30;3.40;;;;;;;8.39;100.00;100060.33;124581;1099;104386;-75
2023/04/03 09:18:17;;;;;;;4.20;2.90;;;;;;;8.41;100.00;100058.68;124209;1099;101897;-71
2023/04/03 09:21:14;;;;;;;;;;;;;;;;;;;;;
2023/04/03 09:24:17;;;;;;;4.43;2.77;;;;;;;8.45;100.00;100057.09;124648;1099;104264;-75
2023/04/03 09:26:58;;;;;;;5.30;3.00;;;;;;;8.49;100.00;100063.31;124614;1100;104169;-78
2023/04/03 09:29:36;;;;;;;3.47;2.53;;;;;;;8.48;99.92;100057.20;124786;1099;102884;-76
2023/04/03 09:32:24;;;;;;;4.27;2.50;;;;;;;8.52;100.00;100074.77;125047;1099;104169;-76
2023/04/03 09:34:58;;;;;;;6.30;3.30;;;;;;;8.60;100.00;100070.73;124384;1099;111618;-75
2023/04/03 09:37:44;;;;;;;12.13;5.67;;;;;;;8.63;99.61;100085.63;124393;1099;104198;-79
2023/04/03 09:40:38;;;;;;;8.60;4.20;;;;;;;8.63;100.00;100086.55;124543;1099;101952;-79
2023/04/03 09:43:33;;;;;;;4.60;3.08;;;;;;;8.59;100.00;100092.48;125023;1099;104031;-82
2023/04/03 09:46:45;;;;;;;;;;;;;;;;;;;;;
2023/04/03 09:49:28;;;;;;;5.37;2.87;;;;;;;8.50;99.58;100097.37;125270;1098;102855;-80
2023/04/03 09:52:24;;;;;;;4.03;2.60;;;;;;;8.44;99.27;100103.25;125166;1099;104261;-78
2023/04/03 09:55:09;;;;;;;4.83;3.00;;;;;;;8.46;100.00;100105.92;125005;1099;104198;-78
2023/04/03 09:57:41;;;;;;;5.37;2.80;;;;;;;8.49;99.52;100105.16;125807;1099;104268;-76
2023/04/03 10:00:25;;;;;;;4.40;2.80;;;;;;;8.50;99.05;100102.59;124684;1102;104095;-73
2023/04/03 10:03:00;;;;;;;3.17;2.73;;;;;;;8.53;99.18;100115.79;125462;1098;104169;-74
2023/04/03 10:05:36;;;;;;;5.97;2.72;;;;;;;8.52;99.39;100111.37;124875;1099;104607;-77
2023/04/03 10:08:23;;;;;;;5.17;2.67;;;;;;;8.53;99.38;100115.79;124967;1099;104351;-75
2023/04/03 10:11:16;;;;;;;5.13;2.67;;;;;;;8.53;98.85;100118.41;125284;1099;104207;-78
2023/04/03 10:13:59;;;;;;;7.47;3.27;;;;;;;8.58;99.46;100116.84;125542;1098;104175;-74
2023/04/03 10:16:38;;;;;;;7.05;3.33;;;;;;;8.64;98.87;100111.84;125979;1099;103285;-78
2023/04/03 10:19:48;;;;;;;8.15;3.50;;;;;;;8.63;99.07;100128.39;122596;1099;10001812;-79
2023/04/03 10:22:47;;;;;;;5.90;3.30;;;;;;;8.56;97.35;100133.33;126223;1098;102242;-77
2023/04/03 10:29:28;;;;;;;4.77;3.00;;;;;;;8.54;98.06;100143.73;125286;1102;102509;-78
2023/04/03 10:33:00;;;;;;;3.50;2.90;;;;;;;8.56;98.46;100147.29;125161;1102;104121;-76
2023/04/03 10:36:15;;;;;;;4.03;2.50;;;;;;;8.65;97.31;100154.61;125244;1102;102076;-73
2023/04/03 10:39:03;;;;;;;3.00;2.30;;;;;;;8.61;96.90;100153.58;125695;1098;102297;-76
2023/04/03 10:41:58;;;;;;;5.50;2.57;;;;;;;8.66;98.80;100155.48;125930;1099;103077;-77
2023/04/03 10:45:02;;;;;;;6.47;2.47;;;;;;;8.75;97.37;100161.06;125656;1099;104641;-77
2023/04/03 10:47:42;;;;;;;4.43;2.50;;;;;;;8.75;96.53;100155.84;125787;1099;102765;-75
2023/04/03 10:50:34;;;;;;;4.27;2.47;;;;;;;8.80;96.22;100164.73;125389;1099;104169;-76
2023/04/03 10:53:15;;;;;;;4.23;2.90;;;;;;;8.87;96.07;100153.67;126683;1098;102370;-77
2023/04/03 10:55:55;;;;;;;3.10;2.20;;;;;;;8.92;95.70;100159.95;124775;1099;104277;-79
2023/04/03 10:58:37;;;;;;;4.53;2.67;;;;;;;8.86;93.79;100164.08;125486;1099;101975;-77
2023/04/03 11:01:18;;;;;;;5.13;2.50;;;;;;;8.80;93.00;100168.27;116863;1099;10000844;-77
2023/04/03 11:03:55;;;;;;;2.73;2.23;;;;;;;8.83;94.51;100158.73;125454;1099;102911;-78
2023/04/03 11:06:37;;;;;;;5.17;2.43;;;;;;;8.89;94.39;100159.84;124731;1098;101836;-72
2023/04/03 11:09:20;;;;;;;4.47;2.30;;;;;;;8.98;92.69;100156.69;125078;1099;104166;-74
2023/04/03 11:11:58;;;;;;;3.20;2.37;;;;;;;9.08;93.91;100148.31;124633;1099;102632;-74
2023/04/03 11:14:34;;;;;;;5.10;2.27;;;;;;;9.21;94.58;100161.84;124657;1099;104249;-77
2023/04/03 11:17:12;;;;;;;3.37;2.57;;;;;;;9.26;93.93;100163.80;124796;1099;107864;-71
2023/04/03 11:19:50;;;;;;;4.63;2.13;;;;;;;9.27;91.63;100168.22;124882;1099;104225;-73
2023/04/03 11:22:27;;;;;;;2.50;2.00;;;;;;;9.34;91.12;100154.48;124664;1099;104175;-71
2023/04/03 11:25:08;;;;;;;3.03;1.90;;;;;;;9.43;92.34;100174.88;124796;1099;104182;-76
2023/04/03 11:27:46;;;;;;;4.10;2.10;;;;;;;9.38;89.01;100181.69;124489;1102;121532;-72
2023/04/03 11:30:34;;;;;;;4.43;2.13;;;;;;;9.39;93.39;100179.95;124890;1098;104172;-74
2023/04/03 11:33:31;;;;;;;2.50;2.00;;;;;;;9.37;90.53;100186.88;125086;1099;101964;-73
2023/04/03 11:36:07;;;;;;;4.50;2.10;;;;;;;9.27;90.05;100173.45;124952;1099;104238;-73
2023/04/03 11:38:46;;;;;;;4.23;2.47;;;;;;;9.20;90.67;100174.05;124398;1099;104223;-75
2023/04/03 11:41:26;;;;;;;3.07;1.97;;;;;;;9.08;90.28;100173.61;125270;1099;104204;-74
2023/04/03 11:44:04;;;;;;;6.80;2.20;;;;;;;9.19;91.50;100174.88;125152;1099;104223;-78
2023/04/03 11:47:01;;;;;;;4.00;2.30;;;;;;;9.23;89.48;100168.93;124981;1099;102165;-73
2023/04/03 11:49:57;;;;;;;5.03;2.43;;;;;;;9.23;91.07;100165.43;124920;1099;101918;-77
2023/04/03 11:53:04;;;;;;;3.90;2.40;;;;;;;9.26;90.66;100169.04;125048;1099;104195;-76
2023/04/03 11:55:57;;;;;;;4.03;2.10;;;;;;;9.34;90.09;100169.31;124600;1099;104444;-70
2023/04/03 11:58:30;;;;;;;;;;;;;;;9.25;87.56;100169.86;124444;1099;108255;-78
2023/04/03 12:01:10;;;;;;;3.70;2.10;;;;;;;9.23;88.57;100158.45;124777;1099;101871;-71
2023/04/03 12:04:09;;;;;;;3.47;2.00;;;;;;;9.23;90.12;100145.37;125095;1099;104233;-77
2023/04/03 12:07:14;;;;;;;3.73;2.03;;;;;;;9.27;89.16;100146.36;124753;1099;101827;-75
2023/04/03 12:10:19;;;;;;;3.70;1.93;;;;;;;9.19;88.14;100148.70;124494;1099;104335;-71